createdAt,value
2022-12-09T00:00:01.953Z,9.61
2022-12-09T00:02:31.110Z,9.85
2022-12-09T00:05:00.124Z,9.94
2022-12-09T00:07:28.507Z,9.64
2022-12-09T00:09:56.723Z,9.59
2022-12-09T00:12:26.503Z,9.64
2022-12-09T00:14:54.718Z,9.92
2022-12-09T00:17:23.303Z,9.63
2022-12-09T00:19:51.647Z,9.82
2022-12-09T00:22:19.917Z,9.78
2022-12-09T00:24:48.205Z,9.81
2022-12-09T00:27:16.654Z,9.82
2022-12-09T00:29:46.509Z,9.52
2022-12-09T00:32:15.462Z,9.90
2022-12-09T00:34:43.929Z,9.94
2022-12-09T00:37:12.224Z,9.94
2022-12-09T00:39:40.582Z,10.00
2022-12-09T00:42:08.949Z,9.96
2022-12-09T00:44:37.200Z,9.87
2022-12-09T00:47:06.919Z,9.94
2022-12-09T00:49:35.702Z,10.00
2022-12-09T00:52:04.094Z,9.91
2022-12-09T00:54:32.641Z,9.72
2022-12-09T00:57:01.084Z,9.76
2022-12-09T00:59:29.659Z,9.65
2022-12-09T01:02:00.184Z,9.86
2022-12-09T01:04:30.129Z,9.56
2022-12-09T01:06:58.807Z,9.26
2022-12-09T01:09:27.422Z,9.08
2022-12-09T01:11:55.787Z,9.25
2022-12-09T01:14:24.089Z,9.44
2022-12-09T01:16:52.797Z,9.45
2022-12-09T01:19:21.332Z,9.38
2022-12-09T01:21:54.934Z,9.57
2022-12-09T01:24:23.530Z,9.74
2022-12-09T01:26:51.792Z,9.38
2022-12-09T01:29:20.135Z,9.59
2022-12-09T01:31:48.451Z,9.59
2022-12-09T01:34:16.995Z,9.77
2022-12-09T01:36:45.409Z,9.89
2022-12-09T01:39:16.804Z,10.00
2022-12-09T01:41:45.936Z,9.87
2022-12-09T01:44:18.332Z,9.89
2022-12-09T01:46:47.646Z,9.96
2022-12-09T01:49:20.890Z,9.81
2022-12-09T01:51:56.285Z,9.78
2022-12-09T01:54:26.317Z,9.68
2022-12-09T01:56:56.149Z,9.45
2022-12-09T01:59:26.576Z,9.54
2022-12-09T02:02:00.015Z,9.84
2022-12-09T02:04:30.992Z,9.99
2022-12-09T02:07:03.848Z,9.85
2022-12-09T02:09:33.551Z,9.68
2022-12-09T02:12:13.391Z,9.95
2022-12-09T02:14:44.280Z,9.96
2022-12-09T02:17:27.050Z,9.99
2022-12-09T02:20:02.776Z,10.22
2022-12-09T02:22:36.301Z,10.29
2022-12-09T02:25:20.641Z,10.33
2022-12-09T02:27:59.163Z,10.29
2022-12-09T02:30:34.769Z,10.12
2022-12-09T02:33:18.563Z,9.92
2022-12-09T02:35:53.821Z,9.75
2022-12-09T02:38:26.975Z,9.88
2022-12-09T02:41:00.389Z,9.73
2022-12-09T02:43:33.073Z,9.69
2022-12-09T02:46:03.545Z,9.66
2022-12-09T02:48:36.361Z,9.51
2022-12-09T02:51:09.064Z,9.40
2022-12-09T02:53:39.698Z,9.27
2022-12-09T02:56:09.604Z,9.39
2022-12-09T02:58:38.044Z,9.75
2022-12-09T03:01:07.418Z,9.97
2022-12-09T03:03:36.367Z,9.93
2022-12-09T03:06:09.690Z,9.97
2022-12-09T03:08:46.092Z,9.76
2022-12-09T03:11:17.270Z,9.42
2022-12-09T03:13:53.381Z,9.74
2022-12-09T03:16:28.242Z,9.83
2022-12-09T03:19:01.943Z,9.70
2022-12-09T03:21:34.019Z,9.58
2022-12-09T03:24:04.053Z,9.44
2022-12-09T03:26:35.224Z,9.39
2022-12-09T03:29:08.285Z,9.63
2022-12-09T03:31:39.531Z,9.66
2022-12-09T03:34:11.080Z,9.48
2022-12-09T03:36:42.830Z,9.62
2022-12-09T03:39:15.572Z,9.94
2022-12-09T03:41:47.023Z,9.99
2022-12-09T03:44:20.911Z,9.73
2022-12-09T03:46:49.918Z,9.76
2022-12-09T03:49:18.452Z,9.62
2022-12-09T03:51:52.091Z,9.87
2022-12-09T03:54:25.745Z,10.03
2022-12-09T03:57:00.435Z,10.13
2022-12-09T03:59:32.312Z,9.92
2022-12-09T04:02:00.935Z,10.03
2022-12-09T04:04:29.622Z,10.06
2022-12-09T04:06:59.883Z,9.41
2022-12-09T04:09:28.403Z,10.01
2022-12-09T04:11:56.824Z,9.88
2022-12-09T04:14:25.469Z,9.53
2022-12-09T04:16:54.130Z,9.74
2022-12-09T04:19:22.512Z,9.79
2022-12-09T04:21:50.820Z,9.55
2022-12-09T04:24:20.843Z,9.59
2022-12-09T04:26:49.421Z,9.71
2022-12-09T04:29:17.781Z,9.64
2022-12-09T04:31:46.428Z,9.70
2022-12-09T04:34:14.877Z,9.94
2022-12-09T04:36:43.260Z,9.66
2022-12-09T04:39:11.455Z,9.69
2022-12-09T04:41:41.324Z,9.71
2022-12-09T04:44:09.666Z,9.51
2022-12-09T04:46:38.024Z,9.51
2022-12-09T04:49:06.318Z,9.42
2022-12-09T04:51:39.427Z,9.14
2022-12-09T04:54:08.933Z,9.02
2022-12-09T04:56:37.540Z,9.39
2022-12-09T04:59:07.950Z,9.30
2022-12-09T05:01:36.393Z,9.13
2022-12-09T05:04:05.548Z,9.04
2022-12-09T05:06:34.566Z,9.15
2022-12-09T05:09:03.730Z,9.24
2022-12-09T05:11:32.861Z,9.47
2022-12-09T05:14:01.349Z,9.80
2022-12-09T05:16:31.297Z,9.84
2022-12-09T05:19:01.543Z,9.41
2022-12-09T05:21:30.275Z,9.51
2022-12-09T05:23:59.080Z,9.39
2022-12-09T05:26:27.750Z,9.27
2022-12-09T05:28:56.193Z,9.20
2022-12-09T05:31:25.339Z,9.22
2022-12-09T05:33:55.560Z,9.43
2022-12-09T05:36:25.687Z,8.91
2022-12-09T05:38:55.444Z,9.71
2022-12-09T05:41:24.377Z,9.75
2022-12-09T05:43:54.116Z,9.94
2022-12-09T05:46:23.313Z,9.54
2022-12-09T05:48:51.900Z,9.76
2022-12-09T05:51:24.937Z,9.07
2022-12-09T05:53:54.925Z,9.74
2022-12-09T05:56:25.328Z,9.87
2022-12-09T05:58:54.929Z,9.90
2022-12-09T06:01:24.309Z,9.91
2022-12-09T06:03:54.554Z,9.83
2022-12-09T06:06:28.448Z,9.67
2022-12-09T06:08:59.728Z,9.74
2022-12-09T06:11:29.157Z,9.04
2022-12-09T06:13:57.824Z,9.92
2022-12-09T06:16:26.487Z,9.95
2022-12-09T06:18:55.528Z,9.75
2022-12-09T06:21:26.046Z,9.87
2022-12-09T06:23:54.948Z,9.63
2022-12-09T06:26:25.614Z,9.22
2022-12-09T06:28:54.909Z,9.74
2022-12-09T06:31:24.141Z,9.87
2022-12-09T06:33:55.335Z,9.94
2022-12-09T06:36:27.022Z,10.12
2022-12-09T06:38:56.659Z,10.06
2022-12-09T06:41:25.560Z,10.08
2022-12-09T06:43:54.554Z,10.10
2022-12-09T06:46:25.394Z,9.86
2022-12-09T06:48:55.809Z,10.02
2022-12-09T06:51:26.871Z,9.63
2022-12-09T06:53:56.042Z,9.22
2022-12-09T06:56:25.417Z,9.11
2022-12-09T06:58:54.146Z,9.21
2022-12-09T07:01:26.195Z,9.00
2022-12-09T07:03:57.107Z,9.07
2022-12-09T07:06:31.073Z,9.30
2022-12-09T07:09:02.595Z,9.56
2022-12-09T07:11:32.008Z,9.46
2022-12-09T07:14:00.687Z,9.82
2022-12-09T07:16:30.128Z,9.93
2022-12-09T07:18:59.315Z,10.30
2022-12-09T07:21:29.923Z,10.48
2022-12-09T07:24:00.790Z,10.31
2022-12-09T07:26:32.014Z,10.25
2022-12-09T07:29:03.659Z,10.25
2022-12-09T07:31:32.726Z,10.02
2022-12-09T07:34:01.463Z,10.18
2022-12-09T07:36:33.148Z,10.28
2022-12-09T07:39:06.209Z,10.27
2022-12-09T07:41:35.323Z,10.29
2022-12-09T07:44:04.099Z,10.16
2022-12-09T07:46:33.242Z,10.18
2022-12-09T07:49:03.736Z,9.82
2022-12-09T07:51:34.160Z,10.19
2022-12-09T07:54:02.680Z,9.96
2022-12-09T07:56:31.471Z,10.44
2022-12-09T07:59:00.170Z,10.55
2022-12-09T08:01:31.200Z,10.76
2022-12-09T08:04:01.419Z,10.85
2022-12-09T08:06:31.674Z,11.18
2022-12-09T08:09:04.195Z,11.07
2022-12-09T08:11:34.164Z,10.90
2022-12-09T08:14:10.547Z,11.03
2022-12-09T08:16:41.721Z,10.91
2022-12-09T08:19:10.743Z,10.91
2022-12-09T08:21:39.957Z,10.76
2022-12-09T08:24:11.964Z,10.95
2022-12-09T08:26:41.131Z,10.57
2022-12-09T08:29:11.102Z,10.11
2022-12-09T08:31:42.357Z,10.18
2022-12-09T08:34:11.575Z,10.17
2022-12-09T08:36:40.862Z,10.40
2022-12-09T08:39:11.599Z,10.37
2022-12-09T08:41:40.718Z,10.68
2022-12-09T08:44:12.171Z,10.85
2022-12-09T08:46:42.968Z,11.20
2022-12-09T08:49:13.402Z,10.98
2022-12-09T08:51:42.007Z,11.26
2022-12-09T08:54:12.119Z,11.13
2022-12-09T08:56:40.857Z,10.92
2022-12-09T08:59:09.136Z,10.97
2022-12-09T09:01:37.572Z,11.10
2022-12-09T09:04:08.701Z,11.02
2022-12-09T09:06:38.701Z,11.34
2022-12-09T09:09:09.004Z,11.54
2022-12-09T09:11:40.247Z,11.36
2022-12-09T09:14:10.825Z,11.48
2022-12-09T09:16:41.237Z,11.42
2022-12-09T09:19:14.193Z,11.31
2022-12-09T09:21:43.124Z,11.58
2022-12-09T09:24:12.882Z,11.68
2022-12-09T09:26:44.256Z,11.41
2022-12-09T09:29:13.644Z,10.99
2022-12-09T09:31:42.424Z,11.13
2022-12-09T09:34:12.112Z,11.19
2022-12-09T09:36:42.227Z,11.25
2022-12-09T09:39:11.114Z,10.90
2022-12-09T09:41:52.923Z,10.82
2022-12-09T09:44:26.682Z,11.00
2022-12-09T09:46:56.947Z,10.89
2022-12-09T09:49:32.926Z,10.90
2022-12-09T09:52:07.276Z,11.07
2022-12-09T09:54:36.419Z,11.10
2022-12-09T09:57:14.930Z,11.11
2022-12-09T09:59:58.818Z,11.32
2022-12-09T10:02:48.383Z,11.58
2022-12-09T10:05:24.212Z,11.61
2022-12-09T10:07:56.428Z,11.28
2022-12-09T10:10:40.313Z,11.25
2022-12-09T10:13:23.023Z,10.59
2022-12-09T10:16:00.704Z,11.45
2022-12-09T10:18:33.681Z,11.08
2022-12-09T10:21:02.377Z,11.05
2022-12-09T10:23:33.376Z,11.07
2022-12-09T10:26:07.862Z,11.40
2022-12-09T10:28:43.123Z,11.48
2022-12-09T10:31:12.779Z,11.30
2022-12-09T10:33:42.801Z,11.65
2022-12-09T10:36:24.586Z,11.79
2022-12-09T10:38:54.672Z,11.69
2022-12-09T10:41:54.634Z,12.18
2022-12-09T10:44:26.180Z,12.19
2022-12-09T10:47:03.553Z,12.28
2022-12-09T10:49:33.345Z,12.36
2022-12-09T10:52:05.436Z,12.64
2022-12-09T10:54:40.109Z,12.29
2022-12-09T10:57:25.350Z,12.70
2022-12-09T11:00:02.198Z,12.44
2022-12-09T11:02:32.869Z,12.22
2022-12-09T11:05:22.945Z,12.10
2022-12-09T11:07:53.308Z,11.90
2022-12-09T11:10:24.991Z,11.89
2022-12-09T11:12:56.057Z,11.84
2022-12-09T11:15:34.158Z,12.23
2022-12-09T11:18:06.235Z,12.13
2022-12-09T11:20:36.679Z,12.14
2022-12-09T11:23:08.348Z,12.46
2022-12-09T11:25:38.481Z,12.59
2022-12-09T11:28:23.251Z,12.14
2022-12-09T11:31:27.874Z,12.07
2022-12-09T11:33:52.048Z,12.29
2022-12-09T11:36:24.231Z,12.24
2022-12-09T11:38:55.611Z,12.05
2022-12-09T11:41:43.256Z,12.15
2022-12-09T11:44:22.098Z,12.35
2022-12-09T11:47:01.257Z,12.16
2022-12-09T11:49:31.224Z,12.15
2022-12-09T11:52:08.822Z,11.93
2022-12-09T11:54:43.852Z,12.01
2022-12-09T11:57:23.358Z,11.86
2022-12-09T11:59:58.969Z,11.44
2022-12-09T12:02:36.437Z,12.17
2022-12-09T12:05:11.396Z,12.33
2022-12-09T12:07:45.440Z,12.36
2022-12-09T12:10:20.446Z,12.29
2022-12-09T12:13:00.297Z,12.36
2022-12-09T12:15:35.819Z,11.39
2022-12-09T12:18:11.060Z,11.49
2022-12-09T12:20:50.429Z,12.52
2022-12-09T12:23:36.560Z,12.30
2022-12-09T12:26:10.105Z,12.60
2022-12-09T12:28:57.294Z,12.44
2022-12-09T12:31:53.050Z,12.59
2022-12-09T12:34:38.872Z,12.33
2022-12-09T12:37:23.715Z,12.48
2022-12-09T12:40:08.411Z,12.32
2022-12-09T12:43:04.523Z,12.11
2022-12-09T12:45:58.463Z,12.30
2022-12-09T12:48:34.489Z,12.39
2022-12-09T12:51:17.584Z,12.39
2022-12-09T12:53:53.443Z,12.24
2022-12-09T12:56:25.846Z,12.37
2022-12-09T12:59:06.631Z,12.50
2022-12-09T13:01:37.405Z,12.53
2022-12-09T13:04:17.304Z,12.56
2022-12-09T13:06:51.812Z,12.39
2022-12-09T13:09:26.477Z,12.35
2022-12-09T13:12:01.959Z,12.18
2022-12-09T13:14:35.241Z,12.37
2022-12-09T13:17:10.019Z,12.34
2022-12-09T13:19:42.826Z,12.43
2022-12-09T13:22:20.977Z,12.46
2022-12-09T13:25:00.160Z,12.00
2022-12-09T13:27:38.192Z,11.81
2022-12-09T13:30:12.713Z,11.36
2022-12-09T13:33:22.241Z,11.99
2022-12-09T13:35:56.721Z,12.01
2022-12-09T13:38:34.217Z,12.08
2022-12-09T13:41:22.461Z,12.12
2022-12-09T13:43:50.688Z,12.07
2022-12-09T13:46:23.821Z,12.10
2022-12-09T13:48:55.817Z,12.09
2022-12-09T13:51:27.570Z,12.13
2022-12-09T13:54:07.117Z,12.23
2022-12-09T13:56:37.977Z,11.53
2022-12-09T13:59:38.363Z,12.29
2022-12-09T14:02:22.079Z,12.28
2022-12-09T14:05:00.098Z,12.34
2022-12-09T14:07:35.207Z,12.32
2022-12-09T14:10:06.688Z,12.30
2022-12-09T14:13:04.993Z,12.21
2022-12-09T14:15:38.841Z,12.22
2022-12-09T14:18:28.797Z,12.33
2022-12-09T14:21:33.606Z,12.07
2022-12-09T14:24:34.564Z,12.17
2022-12-09T14:27:18.560Z,11.95
2022-12-09T14:30:06.160Z,11.92
2022-12-09T14:32:36.753Z,12.06
2022-12-09T14:35:22.538Z,12.13
2022-12-09T14:38:01.579Z,12.16
2022-12-09T14:40:59.373Z,12.23
2022-12-09T14:44:02.784Z,12.11
2022-12-09T14:46:35.737Z,12.15
2022-12-09T14:49:17.069Z,12.09
2022-12-09T14:51:47.553Z,12.18
2022-12-09T14:54:20.000Z,12.08
2022-12-09T14:56:51.502Z,11.95
2022-12-09T14:59:21.821Z,12.09
2022-12-09T15:01:57.241Z,12.21
2022-12-09T15:04:29.914Z,12.23
2022-12-09T15:07:12.159Z,12.28
2022-12-09T15:09:48.966Z,12.02
2022-12-09T15:12:17.645Z,12.14
2022-12-09T15:14:47.064Z,12.28
2022-12-09T15:17:23.065Z,11.81
2022-12-09T15:20:01.730Z,11.79
2022-12-09T15:22:32.598Z,11.42
2022-12-09T15:25:03.180Z,11.15
2022-12-09T15:27:31.913Z,11.20
2022-12-09T15:30:00.256Z,11.52
2022-12-09T15:32:31.769Z,11.38
2022-12-09T15:35:18.874Z,11.58
2022-12-09T15:37:48.246Z,11.24
2022-12-09T15:40:22.281Z,11.41
2022-12-09T15:42:55.484Z,11.54
2022-12-09T15:45:25.911Z,11.31
2022-12-09T15:47:59.200Z,11.56
2022-12-09T15:50:33.099Z,11.75
2022-12-09T15:53:07.005Z,11.61
2022-12-09T15:55:39.585Z,11.75
2022-12-09T15:58:13.299Z,11.75
2022-12-09T16:00:47.203Z,11.34
2022-12-09T16:03:20.510Z,11.60
2022-12-09T16:05:54.235Z,11.70
2022-12-09T16:08:23.271Z,11.81
2022-12-09T16:10:54.318Z,11.48
2022-12-09T16:13:22.618Z,11.37
2022-12-09T16:15:52.983Z,11.55
2022-12-09T16:18:25.966Z,11.69
2022-12-09T16:21:22.381Z,11.84
2022-12-09T16:23:53.975Z,11.88
2022-12-09T16:26:29.518Z,11.98
2022-12-09T16:29:01.026Z,11.95
2022-12-09T16:31:29.776Z,12.01
2022-12-09T16:33:59.578Z,11.00
2022-12-09T16:36:30.109Z,11.82
2022-12-09T16:39:35.013Z,11.73
2022-12-09T16:42:03.531Z,11.90
2022-12-09T16:44:35.473Z,11.58
2022-12-09T16:47:16.232Z,11.00
2022-12-09T16:49:48.752Z,11.61
2022-12-09T16:52:20.315Z,11.62
2022-12-09T16:54:50.470Z,11.70
2022-12-09T16:57:20.681Z,11.53
2022-12-09T16:59:49.404Z,11.27
2022-12-09T17:02:25.371Z,11.20
2022-12-09T17:04:55.101Z,11.51
2022-12-09T17:07:23.365Z,11.22
2022-12-09T17:09:51.737Z,11.24
2022-12-09T17:12:20.073Z,11.38
2022-12-09T17:14:48.442Z,11.60
2022-12-09T17:17:16.773Z,11.68
2022-12-09T17:19:45.077Z,11.76
2022-12-09T17:22:14.819Z,11.87
2022-12-09T17:24:45.904Z,11.92
2022-12-09T17:27:16.749Z,11.43
2022-12-09T17:29:46.394Z,11.65
2022-12-09T17:32:14.947Z,11.57
2022-12-09T17:34:43.274Z,11.51
2022-12-09T17:37:12.293Z,11.50
2022-12-09T17:39:41.980Z,11.24
2022-12-09T17:42:10.188Z,11.46
2022-12-09T17:44:39.599Z,11.24
2022-12-09T17:47:08.034Z,11.61
2022-12-09T17:49:36.275Z,11.66
2022-12-09T17:52:04.878Z,11.47
2022-12-09T17:54:33.358Z,10.89
2022-12-09T17:57:03.059Z,11.46
2022-12-09T17:59:31.455Z,11.42
2022-12-09T18:01:59.889Z,11.81
2022-12-09T18:04:28.176Z,11.82
2022-12-09T18:06:56.422Z,11.77
2022-12-09T18:09:25.012Z,11.84
2022-12-09T18:11:53.255Z,11.52
2022-12-09T18:14:22.959Z,11.62
2022-12-09T18:16:51.233Z,11.61
2022-12-09T18:19:20.923Z,11.78
2022-12-09T18:21:49.308Z,11.72
2022-12-09T18:24:18.388Z,11.84
2022-12-09T18:26:46.680Z,11.79
2022-12-09T18:29:15.492Z,11.82
2022-12-09T18:31:46.148Z,11.86
2022-12-09T18:34:14.457Z,11.66
2022-12-09T18:36:43.059Z,11.95
2022-12-09T18:39:11.346Z,11.99
2022-12-09T18:41:39.678Z,12.04
2022-12-09T18:44:08.803Z,12.08
2022-12-09T18:46:39.645Z,12.10
2022-12-09T18:49:12.149Z,11.73
2022-12-09T18:51:42.122Z,12.02
2022-12-09T18:54:12.039Z,11.60
2022-12-09T18:56:40.242Z,12.06
2022-12-09T18:59:09.528Z,11.78
2022-12-09T19:01:40.757Z,11.72
2022-12-09T19:04:14.184Z,11.93
2022-12-09T19:06:44.415Z,12.06
2022-12-09T19:09:15.868Z,12.09
2022-12-09T19:11:46.199Z,11.71
2022-12-09T19:14:15.265Z,11.86
2022-12-09T19:16:44.627Z,11.92
2022-12-09T19:19:15.893Z,11.94
2022-12-09T19:21:44.864Z,11.91
2022-12-09T19:24:16.027Z,11.46
2022-12-09T19:26:44.820Z,11.72
2022-12-09T19:29:14.181Z,11.51
2022-12-09T19:31:44.793Z,11.13
2022-12-09T19:34:17.362Z,11.64
2022-12-09T19:36:46.494Z,11.89
2022-12-09T19:39:15.946Z,11.30
2022-12-09T19:41:45.348Z,11.72
2022-12-09T19:44:31.003Z,11.80
2022-12-09T19:47:04.172Z,11.87
2022-12-09T19:49:33.905Z,11.85
2022-12-09T19:52:03.513Z,11.84
2022-12-09T19:54:31.755Z,11.95
2022-12-09T19:57:00.118Z,11.91
2022-12-09T19:59:28.875Z,11.71
2022-12-09T20:01:57.173Z,11.91
2022-12-09T20:07:16.231Z,11.86
2022-12-09T20:09:44.448Z,11.96
2022-12-09T20:12:12.772Z,11.96
2022-12-09T20:14:41.435Z,11.85
2022-12-09T20:17:09.692Z,11.90
2022-12-09T20:19:37.921Z,11.97
2022-12-09T20:22:06.519Z,12.01
2022-12-09T20:24:36.126Z,12.05
2022-12-09T20:27:04.396Z,12.05
2022-12-09T20:29:37.243Z,12.07
2022-12-09T20:32:06.631Z,12.03
2022-12-09T20:34:35.273Z,11.59
2022-12-09T20:37:03.868Z,11.26
2022-12-09T20:39:32.231Z,11.16
2022-12-09T20:42:02.072Z,11.36
2022-12-09T20:44:32.477Z,11.37
2022-12-09T20:47:00.769Z,11.67
2022-12-09T20:49:29.985Z,11.42
2022-12-09T20:51:58.709Z,11.65
2022-12-09T20:54:27.171Z,11.73
2022-12-09T20:56:55.478Z,11.71
2022-12-09T20:59:25.401Z,11.82
2022-12-09T21:01:54.364Z,11.87
2022-12-09T21:04:22.818Z,11.80
2022-12-09T21:06:51.247Z,11.56
2022-12-09T21:09:22.370Z,11.33
2022-12-09T21:11:51.683Z,11.54
2022-12-09T21:14:21.285Z,11.62
2022-12-09T21:16:51.524Z,11.67
2022-12-09T21:19:25.209Z,11.71
2022-12-09T21:21:54.605Z,11.84
2022-12-09T21:24:24.297Z,11.85
2022-12-09T21:26:55.483Z,11.55
2022-12-09T21:29:28.414Z,11.61
2022-12-09T21:32:01.965Z,11.61
2022-12-09T21:34:30.400Z,11.70
2022-12-09T21:36:59.156Z,11.76
2022-12-09T21:39:31.519Z,11.79
2022-12-09T21:41:59.742Z,11.85
2022-12-09T21:44:28.428Z,11.83
2022-12-09T21:46:56.710Z,11.69
2022-12-09T21:49:26.545Z,11.58
2022-12-09T21:51:54.806Z,11.80
2022-12-09T21:54:23.155Z,11.85
2022-12-09T21:56:51.480Z,11.82
2022-12-09T21:59:20.485Z,11.50
2022-12-09T22:01:48.762Z,11.77
2022-12-09T22:04:17.921Z,11.36
2022-12-09T22:06:49.349Z,11.51
2022-12-09T22:09:20.790Z,11.54
2022-12-09T22:11:49.092Z,11.63
2022-12-09T22:14:17.527Z,11.64
2022-12-09T22:16:47.015Z,11.72
2022-12-09T22:19:17.507Z,11.57
2022-12-09T22:21:47.510Z,11.59
2022-12-09T22:24:16.446Z,11.48
2022-12-09T22:26:45.334Z,11.69
2022-12-09T22:29:15.503Z,11.68
2022-12-09T22:31:44.716Z,11.76
2022-12-09T22:34:14.664Z,11.57
2022-12-09T22:36:43.398Z,11.46
2022-12-09T22:39:15.627Z,11.62
2022-12-09T22:41:45.906Z,11.67
2022-12-09T22:44:15.828Z,11.68
2022-12-09T22:46:44.707Z,11.72
2022-12-09T22:49:16.505Z,11.60
2022-12-09T22:51:45.434Z,11.47
2022-12-09T22:54:15.652Z,11.43
2022-12-09T22:56:44.904Z,11.01
2022-12-09T22:59:15.917Z,11.61
2022-12-09T23:01:46.034Z,11.62
2022-12-09T23:04:16.246Z,11.57
2022-12-09T23:06:45.047Z,11.15
2022-12-09T23:09:20.406Z,11.24
2022-12-09T23:11:49.111Z,11.36
2022-12-09T23:14:17.956Z,10.75
2022-12-09T23:16:47.416Z,10.93
2022-12-09T23:19:15.752Z,11.14
2022-12-09T23:21:44.533Z,11.16
2022-12-09T23:24:21.172Z,11.38
2022-12-09T23:26:53.104Z,11.48
2022-12-09T23:29:21.492Z,11.30
2022-12-09T23:31:49.782Z,11.44
2022-12-09T23:34:18.489Z,11.45
2022-12-09T23:36:46.792Z,11.46
2022-12-09T23:39:18.534Z,11.31
2022-12-09T23:41:47.654Z,11.11
2022-12-09T23:44:17.986Z,11.10
2022-12-09T23:46:46.571Z,11.16
2022-12-09T23:49:15.039Z,11.00
2022-12-09T23:51:44.934Z,10.88
2022-12-09T23:54:15.628Z,11.19
2022-12-09T23:56:49.923Z,11.15
2022-12-09T23:59:20.532Z,11.21
